Time;durP1;ratioP1;P1;durP2;ratioP2;P2;SDS_P1;SDS_P2;PMS_P1;PMS_P2;Temp;Humidity;BMP_temperature;BMP_pressure;BME280_temperature;BME280_humidity;BME280_pressure;Samples;Min_cycle;Max_cycle;Signal;HPM_P1;HPM_P2
2022/05/27 00:01:38;;;;;;;0.40;0.30;;;14.20;99.90;;;;;;5012600;28;20489;-77
2022/05/27 00:04:04;;;;;;;1.83;0.50;;;14.20;99.90;;;;;;5011256;28;20111;-77
2022/05/27 00:06:30;;;;;;;0.68;0.40;;;14.20;99.90;;;;;;5011932;28;20048;-76
2022/05/27 00:08:56;;;;;;;0.88;0.30;;;14.20;99.90;;;;;;4994912;28;20087;-76
2022/05/27 00:11:24;;;;;;;0.30;0.30;;;14.10;99.90;;;;;;5012067;28;20471;-76
2022/05/27 00:13:51;;;;;;;0.30;0.30;;;14.10;99.90;;;;;;4998884;28;20092;-76
2022/05/27 00:16:16;;;;;;;0.30;0.30;;;14.10;99.90;;;;;;5014377;28;20037;-77
2022/05/27 00:18:42;;;;;;;0.55;0.28;;;14.10;99.90;;;;;;5016034;28;20100;-77
2022/05/27 00:21:07;;;;;;;0.57;0.40;;;14.10;99.90;;;;;;5015936;28;20084;-76
2022/05/27 00:23:33;;;;;;;0.50;0.30;;;14.10;99.90;;;;;;5023035;28;20081;-76
2022/05/27 00:25:59;;;;;;;0.82;0.40;;;14.00;99.90;;;;;;5032247;28;20045;-76
2022/05/27 00:28:24;;;;;;;0.40;0.30;;;14.00;99.90;;;;;;5026024;28;20050;-76
2022/05/27 00:30:50;;;;;;;0.43;0.38;;;14.00;99.90;;;;;;5027434;28;20117;-76
2022/05/27 00:33:16;;;;;;;0.57;0.40;;;13.90;99.90;;;;;;5039968;28;20028;-80
2022/05/27 00:35:42;;;;;;;0.45;0.30;;;14.00;99.90;;;;;;5040450;28;20056;-77
2022/05/27 00:38:07;;;;;;;0.80;0.32;;;13.90;99.90;;;;;;5038742;28;20101;-76
2022/05/27 00:40:38;;;;;;;0.55;0.40;;;13.90;99.90;;;;;;5025898;28;20128;-76
2022/05/27 00:43:04;;;;;;;0.20;0.20;;;13.80;99.90;;;;;;5015460;28;20054;-75
2022/05/27 00:45:30;;;;;;;0.40;0.30;;;13.80;99.90;;;;;;5013999;28;20149;-77
2022/05/27 00:47:57;;;;;;;0.20;0.20;;;13.80;99.90;;;;;;4981825;28;20084;-76
2022/05/27 00:50:28;;;;;;;1.27;0.38;;;13.70;99.90;;;;;;5013897;28;20383;-76
2022/05/27 00:52:54;;;;;;;0.82;0.40;;;13.70;99.90;;;;;;5014050;28;20042;-76
2022/05/27 00:55:27;;;;;;;2.15;0.30;;;13.70;99.90;;;;;;4997656;28;20058;-76
2022/05/27 00:58:08;;;;;;;0.73;0.30;;;13.60;99.90;;;;;;5014070;28;20410;-76
2022/05/27 01:00:34;;;;;;;0.38;0.30;;;13.50;99.90;;;;;;4998745;28;20053;-76
2022/05/27 01:03:00;;;;;;;0.65;0.30;;;13.50;99.90;;;;;;5015122;28;20064;-76
2022/05/27 01:05:25;;;;;;;0.60;0.30;;;13.40;99.90;;;;;;5013346;28;20053;-76
2022/05/27 01:07:56;;;;;;;1.17;0.32;;;13.40;99.90;;;;;;5013909;28;20061;-76
2022/05/27 01:10:22;;;;;;;0.30;0.30;;;13.40;99.90;;;;;;4997726;28;20092;-77
2022/05/27 01:12:51;;;;;;;0.30;0.28;;;13.30;99.90;;;;;;5013580;28;20046;-76
2022/05/27 01:15:58;;;;;;;0.60;0.40;;;13.30;99.90;;;;;;5014806;28;20188;-76
2022/05/27 01:21:25;;;;;;;0.73;0.30;;;13.30;99.90;;;;;;5014551;28;20559;-76
2022/05/27 01:24:29;;;;;;;0.35;0.30;;;13.20;99.90;;;;;;5013276;28;20049;-76
2022/05/27 01:27:27;;;;;;;1.27;0.22;;;13.20;99.90;;;;;;5014677;28;20049;-76
2022/05/27 01:30:39;;;;;;;1.83;0.20;;;13.20;99.90;;;;;;5013911;28;20053;-76
2022/05/27 01:33:34;;;;;;;0.82;0.40;;;13.20;99.90;;;;;;5015172;28;20477;-76
2022/05/27 01:36:27;;;;;;;0.85;0.38;;;13.20;99.90;;;;;;5031998;28;20076;-76
2022/05/27 01:38:59;;;;;;;0.30;0.30;;;13.20;99.90;;;;;;5012925;28;20061;-77
2022/05/27 01:41:43;;;;;;;0.68;0.40;;;13.20;99.90;;;;;;5013394;28;20050;-77
2022/05/27 01:44:21;;;;;;;0.70;0.20;;;13.10;99.90;;;;;;5014128;28;20517;-75
2022/05/27 01:46:47;;;;;;;0.30;0.30;;;13.10;99.90;;;;;;4982391;28;20459;-76
2022/05/27 01:49:36;;;;;;;0.30;0.30;;;13.10;99.90;;;;;;5013936;28;20127;-76
2022/05/27 01:52:23;;;;;;;2.38;0.35;;;13.10;99.90;;;;;;5014103;28;20057;-76
2022/05/27 01:55:12;;;;;;;0.32;0.30;;;13.00;99.90;;;;;;5013915;28;20090;-76
2022/05/27 01:57:48;;;;;;;0.30;0.30;;;12.90;99.90;;;;;;5013020;28;20108;-76
2022/05/27 02:00:14;;;;;;;1.17;0.40;;;12.90;99.90;;;;;;5014338;28;20101;-76
2022/05/27 02:03:04;;;;;;;0.40;0.30;;;12.80;99.90;;;;;;5030805;28;20038;-76
2022/05/27 02:05:33;;;;;;;1.75;0.30;;;12.80;99.90;;;;;;5012501;28;20061;-77
2022/05/27 02:08:03;;;;;;;2.20;0.40;;;12.80;99.90;;;;;;4997350;28;20049;-76
2022/05/27 02:10:36;;;;;;;0.50;0.30;;;12.90;99.90;;;;;;4996843;28;20049;-77
2022/05/27 02:13:14;;;;;;;0.20;0.20;;;12.80;99.90;;;;;;5014390;28;20046;-76
2022/05/27 02:15:43;;;;;;;0.30;0.30;;;12.80;99.90;;;;;;5020160;28;20049;-76
2022/05/27 02:18:20;;;;;;;0.20;0.20;;;12.80;99.90;;;;;;5010100;28;20057;-77
2022/05/27 02:20:52;;;;;;;0.45;0.30;;;12.70;99.90;;;;;;5005981;28;20069;-76
2022/05/27 02:23:29;;;;;;;1.60;0.40;;;12.70;99.90;;;;;;4998388;28;20045;-76
2022/05/27 02:25:55;;;;;;;0.88;0.30;;;12.70;99.90;;;;;;5021666;28;20068;-76
2022/05/27 02:28:34;;;;;;;0.73;0.40;;;12.70;99.90;;;;;;5003089;28;20046;-75
2022/05/27 02:31:04;;;;;;;0.55;0.30;;;12.60;99.90;;;;;;5006752;28;20145;-77
2022/05/27 02:36:16;;;;;;;1.05;0.35;;;12.50;99.90;;;;;;5014610;28;20028;-76
2022/05/27 02:38:41;;;;;;;1.27;0.30;;;12.50;99.90;;;;;;5012937;28;20056;-76
2022/05/27 02:41:28;;;;;;;0.20;0.20;;;12.40;99.90;;;;;;4996726;28;20045;-77
2022/05/27 02:44:07;;;;;;;1.90;0.30;;;12.40;99.90;;;;;;5013494;28;20057;-76
2022/05/27 02:46:42;;;;;;;0.73;0.30;;;12.40;99.90;;;;;;4997350;28;20050;-76
2022/05/27 02:49:35;;;;;;;0.30;0.30;;;12.30;99.90;;;;;;5013465;28;20057;-76
2022/05/27 02:52:16;;;;;;;0.20;0.20;;;12.30;99.90;;;;;;5012260;28;20096;-76
2022/05/27 02:54:56;;;;;;;0.47;0.30;;;12.30;99.90;;;;;;5011691;28;20549;-76
2022/05/27 02:57:26;;;;;;;0.45;0.40;;;12.20;99.90;;;;;;5011992;28;20108;-76
2022/05/27 02:59:52;;;;;;;0.47;0.40;;;12.20;99.90;;;;;;5011668;28;20494;-76
2022/05/27 03:02:18;;;;;;;0.38;0.38;;;12.20;99.90;;;;;;4995419;28;20044;-76
2022/05/27 03:04:52;;;;;;;0.57;0.30;;;12.20;99.90;;;;;;5012730;28;20120;-76
2022/05/27 03:07:36;;;;;;;1.85;0.30;;;12.20;99.90;;;;;;5013187;28;20042;-76
2022/05/27 03:10:21;;;;;;;1.58;0.20;;;12.20;99.90;;;;;;5013013;28;20100;-76
2022/05/27 03:13:08;;;;;;;0.47;0.30;;;12.10;99.90;;;;;;5011390;28;20042;-76
2022/05/27 03:15:34;;;;;;;0.32;0.30;;;12.10;99.90;;;;;;5012161;28;20097;-76
2022/05/27 03:18:02;;;;;;;0.82;0.35;;;12.10;99.90;;;;;;5012610;28;20503;-76
2022/05/27 03:20:47;;;;;;;0.65;0.32;;;12.10;99.90;;;;;;5012908;28;20208;-76
2022/05/27 03:23:16;;;;;;;0.63;0.30;;;12.00;99.90;;;;;;5011386;28;20384;-77
2022/05/27 03:25:49;;;;;;;2.05;0.30;;;12.00;99.90;;;;;;5012795;28;20064;-76
2022/05/27 03:28:18;;;;;;;2.03;0.45;;;12.00;99.90;;;;;;5011872;28;20054;-76
2022/05/27 03:30:52;;;;;;;2.17;0.32;;;12.00;99.90;;;;;;5011712;28;20045;-77
2022/05/27 03:33:24;;;;;;;1.00;0.30;;;12.00;99.90;;;;;;5011381;28;20045;-77
2022/05/27 03:36:13;;;;;;;0.57;0.30;;;12.00;99.90;;;;;;4995458;28;20583;-76
2022/05/27 03:38:59;;;;;;;1.95;0.30;;;12.00;99.90;;;;;;4996178;28;20048;-76
2022/05/27 03:41:45;;;;;;;0.40;0.30;;;12.00;99.90;;;;;;4997416;28;20129;-76
2022/05/27 03:44:19;;;;;;;0.57;0.40;;;12.00;99.90;;;;;;4979215;28;20510;-76
2022/05/27 03:46:48;;;;;;;0.32;0.20;;;12.00;99.90;;;;;;5012216;28;20111;-76
2022/05/27 03:49:13;;;;;;;0.57;0.30;;;12.00;99.90;;;;;;5015248;28;20100;-77
2022/05/27 03:52:04;;;;;;;1.55;0.32;;;12.10;99.90;;;;;;5016384;28;20478;-76
2022/05/27 03:54:30;;;;;;;0.30;0.30;;;12.10;99.90;;;;;;5015187;28;20054;-77
2022/05/27 03:56:55;;;;;;;0.40;0.30;;;12.20;99.90;;;;;;5016291;28;20057;-76
2022/05/27 03:59:22;;;;;;;0.30;0.30;;;12.20;99.90;;;;;;5016504;28;20498;-76
2022/05/27 04:01:49;;;;;;;0.25;0.20;;;12.20;99.90;;;;;;5016011;28;20402;-76
2022/05/27 04:04:17;;;;;;;1.08;0.30;;;12.20;99.90;;;;;;5010188;28;20065;-77
2022/05/27 04:06:43;;;;;;;0.20;0.20;;;12.20;99.90;;;;;;5030892;28;20081;-80
2022/05/27 04:09:09;;;;;;;0.35;0.30;;;12.30;99.90;;;;;;5025253;28;20076;-76
2022/05/27 04:11:35;;;;;;;0.50;0.30;;;12.30;99.90;;;;;;5036548;28;20579;-77
2022/05/27 04:14:01;;;;;;;0.30;0.30;;;12.30;99.90;;;;;;5040453;28;20050;-76
2022/05/27 04:16:26;;;;;;;0.30;0.30;;;12.40;99.90;;;;;;5040311;28;20056;-76
2022/05/27 04:18:52;;;;;;;0.40;0.25;;;12.40;99.90;;;;;;5037360;28;20105;-74
2022/05/27 04:21:18;;;;;;;0.28;0.20;;;12.40;99.90;;;;;;5018241;28;20100;-76
2022/05/27 04:23:43;;;;;;;0.30;0.30;;;12.40;99.90;;;;;;5016009;28;20069;-77
2022/05/27 04:26:09;;;;;;;0.80;0.30;;;12.40;99.90;;;;;;5015483;28;20463;-77
2022/05/27 04:28:35;;;;;;;0.43;0.30;;;12.50;99.90;;;;;;5015669;28;20045;-77
2022/05/27 04:31:01;;;;;;;1.65;0.30;;;12.50;99.90;;;;;;5014110;28;20390;-75
2022/05/27 04:33:27;;;;;;;0.30;0.30;;;12.50;99.90;;;;;;4998536;28;20133;-75
2022/05/27 04:35:54;;;;;;;0.35;0.30;;;12.50;99.90;;;;;;5015253;28;20049;-75
2022/05/27 04:38:21;;;;;;;1.52;0.30;;;12.50;99.90;;;;;;4982182;28;20486;-75
2022/05/27 04:40:47;;;;;;;1.17;0.32;;;12.60;99.90;;;;;;5015567;28;20053;-77
2022/05/27 04:43:13;;;;;;;1.45;0.30;;;12.60;99.90;;;;;;5014298;28;20046;-76
2022/05/27 04:45:39;;;;;;;0.52;0.30;;;12.70;99.90;;;;;;5014180;28;20494;-76
2022/05/27 04:48:05;;;;;;;1.05;0.30;;;12.60;99.90;;;;;;4965756;28;20056;-77
2022/05/27 04:50:30;;;;;;;1.52;0.17;;;12.70;99.90;;;;;;5014078;28;20056;-78
2022/05/27 04:52:56;;;;;;;1.63;0.32;;;12.70;99.90;;;;;;5013512;28;20126;-77
2022/05/27 04:55:22;;;;;;;0.20;0.20;;;12.60;99.90;;;;;;5015286;28;20068;-78
2022/05/27 04:57:51;;;;;;;1.50;0.30;;;12.60;99.90;;;;;;5013884;28;20083;-78
2022/05/27 05:00:20;;;;;;;0.35;0.30;;;12.60;99.90;;;;;;4997939;28;20049;-79
2022/05/27 05:02:46;;;;;;;0.63;0.30;;;12.50;99.90;;;;;;5015157;28;20043;-77
2022/05/27 05:05:14;;;;;;;0.60;0.30;;;12.50;99.90;;;;;;5013406;28;20509;-76
2022/05/27 05:07:42;;;;;;;1.00;0.40;;;12.50;99.90;;;;;;5014891;28;20166;-76
2022/05/27 05:10:09;;;;;;;0.25;0.20;;;12.40;99.90;;;;;;5013837;28;20072;-76
2022/05/27 05:12:35;;;;;;;1.27;0.30;;;12.40;99.90;;;;;;5014770;28;20076;-76
2022/05/27 05:15:00;;;;;;;0.70;0.20;;;12.30;99.90;;;;;;5013410;28;20054;-75
2022/05/27 05:17:26;;;;;;;0.40;0.30;;;12.30;99.90;;;;;;5014534;28;20045;-76
2022/05/27 05:19:55;;;;;;;0.20;0.20;;;12.30;99.90;;;;;;5013394;28;20052;-76
2022/05/27 05:22:23;;;;;;;0.98;0.28;;;12.40;99.90;;;;;;5014198;28;20089;-76
2022/05/27 05:24:53;;;;;;;0.93;0.30;;;12.60;99.90;;;;;;5013523;28;20046;-76
2022/05/27 05:27:20;;;;;;;0.93;0.30;;;12.70;99.90;;;;;;5013420;28;20042;-76
2022/05/27 05:29:46;;;;;;;0.55;0.20;;;12.70;99.90;;;;;;5013485;28;20402;-76
2022/05/27 05:32:11;;;;;;;0.70;0.25;;;12.70;99.90;;;;;;5014111;28;20037;-76
2022/05/27 05:34:37;;;;;;;0.30;0.20;;;12.70;99.90;;;;;;5029831;28;20056;-76
2022/05/27 05:37:03;;;;;;;0.43;0.28;;;12.70;99.90;;;;;;5014094;28;20049;-76
2022/05/27 05:39:29;;;;;;;1.83;0.40;;;12.80;99.90;;;;;;5014684;28;20398;-79
2022/05/27 05:41:59;;;;;;;1.20;0.30;;;12.80;99.90;;;;;;5014336;28;20045;-76
2022/05/27 05:44:26;;;;;;;0.47;0.30;;;12.90;99.90;;;;;;5014431;28;20061;-76
2022/05/27 05:46:52;;;;;;;0.25;0.15;;;12.90;99.90;;;;;;5013589;28;20104;-76
2022/05/27 05:49:18;;;;;;;0.70;0.30;;;12.90;99.90;;;;;;5025262;28;20049;-77
2022/05/27 05:51:43;;;;;;;0.22;0.20;;;12.80;99.90;;;;;;5036216;28;20042;-76
2022/05/27 05:54:09;;;;;;;0.52;0.30;;;12.80;99.90;;;;;;5032898;28;20041;-76
2022/05/27 05:56:34;;;;;;;1.73;0.30;;;12.90;99.90;;;;;;5034237;28;20081;-78
2022/05/27 05:59:00;;;;;;;1.10;0.30;;;12.90;99.90;;;;;;5038554;28;20037;-80
2022/05/27 06:01:26;;;;;;;0.30;0.20;;;13.00;99.90;;;;;;5038922;28;20032;-77
2022/05/27 06:03:51;;;;;;;1.50;0.30;;;13.10;99.90;;;;;;5038222;28;20037;-77
2022/05/27 06:06:17;;;;;;;1.60;0.28;;;13.20;99.90;;;;;;5016970;28;20131;-76
2022/05/27 06:08:43;;;;;;;0.20;0.20;;;13.20;99.90;;;;;;5012929;28;20046;-76
2022/05/27 06:11:09;;;;;;;0.93;0.30;;;13.30;99.90;;;;;;5012297;28;20046;-76
2022/05/27 06:13:36;;;;;;;0.30;0.28;;;13.30;99.90;;;;;;5012653;28;20108;-76
2022/05/27 06:16:05;;;;;;;0.50;0.30;;;13.40;99.90;;;;;;5012390;28;20489;-77
2022/05/27 06:18:30;;;;;;;2.50;0.30;;;13.30;99.90;;;;;;4996370;28;20393;-76
2022/05/27 06:20:56;;;;;;;1.95;0.38;;;13.30;99.90;;;;;;5013896;28;20050;-76
2022/05/27 06:23:22;;;;;;;1.10;0.30;;;13.30;99.90;;;;;;5011901;28;20057;-76
2022/05/27 06:25:58;;;;;;;1.10;0.20;;;13.30;99.90;;;;;;5013601;28;20127;-77
2022/05/27 06:36:37;;;;;;;0.75;0.28;;;13.20;99.90;;;;;;5012264;28;20093;-75
2022/05/27 06:39:04;;;;;;;0.55;0.20;;;13.20;99.90;;;;;;5013164;28;20426;-76
2022/05/27 06:41:30;;;;;;;0.47;0.20;;;13.30;99.90;;;;;;5013133;28;20042;-76
2022/05/27 06:43:55;;;;;;;0.50;0.20;;;13.30;99.90;;;;;;5028779;28;20049;-77
2022/05/27 06:46:21;;;;;;;0.43;0.30;;;13.40;99.90;;;;;;5012818;28;20045;-76
2022/05/27 06:48:47;;;;;;;1.00;0.40;;;13.50;99.90;;;;;;5012018;28;20049;-77
2022/05/27 06:51:13;;;;;;;0.30;0.20;;;13.60;99.90;;;;;;5011470;28;20045;-77
2022/05/27 06:53:39;;;;;;;2.95;0.40;;;13.60;99.90;;;;;;5013016;28;20533;-75
2022/05/27 06:56:05;;;;;;;0.88;0.20;;;13.60;99.90;;;;;;5012798;28;20049;-77
2022/05/27 06:58:31;;;;;;;0.80;0.30;;;13.60;99.90;;;;;;5013035;28;20390;-76
2022/05/27 07:00:56;;;;;;;0.20;0.20;;;13.50;99.90;;;;;;5013034;28;20049;-76
2022/05/27 07:03:23;;;;;;;0.68;0.30;;;13.50;99.90;;;;;;5012655;28;20038;-77
2022/05/27 07:05:48;;;;;;;1.17;0.35;;;13.50;99.90;;;;;;5011753;28;20050;-77
2022/05/27 07:08:14;;;;;;;0.52;0.20;;;13.60;99.90;;;;;;5011197;28;20096;-76
2022/05/27 07:10:40;;;;;;;0.52;0.30;;;13.70;99.90;;;;;;5012823;28;20046;-76
2022/05/27 07:13:05;;;;;;;0.90;0.20;;;13.80;99.90;;;;;;5012825;28;20034;-76
2022/05/27 07:15:31;;;;;;;0.38;0.20;;;14.00;99.90;;;;;;5012678;28;20060;-77
2022/05/27 07:17:57;;;;;;;0.20;0.20;;;14.10;99.90;;;;;;5013006;28;20510;-76
2022/05/27 07:20:23;;;;;;;0.40;0.20;;;14.30;99.90;;;;;;5013044;28;20510;-76
2022/05/27 07:22:49;;;;;;;0.20;0.20;;;14.40;99.90;;;;;;5016855;28;20061;-76
2022/05/27 07:25:15;;;;;;;0.85;0.30;;;14.50;99.90;;;;;;5015456;28;20455;-77
2022/05/27 07:27:41;;;;;;;0.38;0.20;;;14.40;99.90;;;;;;5015620;28;20124;-78
2022/05/27 07:30:08;;;;;;;2.08;0.30;;;14.50;99.90;;;;;;5015855;28;20475;-76
2022/05/27 07:32:34;;;;;;;0.40;0.20;;;14.60;99.90;;;;;;5016220;28;20038;-77
2022/05/27 07:35:01;;;;;;;2.55;0.40;;;14.60;99.90;;;;;;5018316;28;20418;-76
2022/05/27 07:37:27;;;;;;;0.82;0.20;;;14.70;99.90;;;;;;5015667;28;20045;-77
2022/05/27 07:39:52;;;;;;;0.50;0.30;;;14.80;99.90;;;;;;5019472;28;20048;-75
2022/05/27 07:42:18;;;;;;;1.67;0.20;;;15.00;99.90;;;;;;5031249;28;20046;-74
2022/05/27 07:44:43;;;;;;;1.75;0.30;;;15.10;99.90;;;;;;5038545;28;20049;-73
2022/05/27 07:47:09;;;;;;;0.75;0.40;;;15.20;99.40;;;;;;5032726;28;20038;-77
2022/05/27 07:49:35;;;;;;;0.40;0.28;;;15.30;99.20;;;;;;5017193;28;20415;-78
2022/05/27 07:52:01;;;;;;;0.95;0.30;;;15.30;99.20;;;;;;5016663;28;20045;-78
2022/05/27 07:54:27;;;;;;;1.17;0.30;;;15.30;99.30;;;;;;5015010;28;20520;-77
2022/05/27 07:56:52;;;;;;;0.65;0.30;;;15.20;99.30;;;;;;5032218;28;20046;-79
2022/05/27 07:59:18;;;;;;;1.08;0.20;;;15.20;99.40;;;;;;5016165;28;20063;-78
2022/05/27 08:01:44;;;;;;;2.10;0.30;;;15.20;98.30;;;;;;5016842;28;20108;-78
2022/05/27 08:04:10;;;;;;;1.30;0.30;;;15.30;99.30;;;;;;5016440;28;20108;-78
2022/05/27 08:06:35;;;;;;;2.72;0.30;;;15.40;98.60;;;;;;5015842;28;20387;-78
2022/05/27 08:09:01;;;;;;;0.32;0.30;;;15.50;98.50;;;;;;5014974;28;20052;-78
2022/05/27 08:11:27;;;;;;;1.55;0.30;;;15.40;97.60;;;;;;5015855;28;20042;-80
2022/05/27 08:13:54;;;;;;;1.33;0.30;;;15.40;98.50;;;;;;5016356;28;20050;-77
2022/05/27 08:16:19;;;;;;;0.30;0.20;;;15.30;96.60;;;;;;5015742;28;20446;-78
2022/05/27 08:18:45;;;;;;;1.13;0.20;;;15.10;96.90;;;;;;5016106;28;20096;-77
2022/05/27 08:21:11;;;;;;;1.20;0.32;;;15.00;97.80;;;;;;5015518;28;20046;-77
2022/05/27 08:23:37;;;;;;;0.60;0.25;;;14.90;98.10;;;;;;5015297;28;20065;-78
2022/05/27 08:26:03;;;;;;;1.13;0.20;;;14.90;98.40;;;;;;5031418;28;20054;-78
2022/05/27 08:28:29;;;;;;;0.45;0.30;;;14.90;98.00;;;;;;5014554;28;20054;-78
2022/05/27 08:30:59;;;;;;;0.38;0.30;;;15.00;97.90;;;;;;5014392;28;20053;-78
2022/05/27 08:33:25;;;;;;;0.40;0.22;;;15.00;97.80;;;;;;5013470;28;20158;-78
2022/05/27 08:38:37;;;;;;;0.52;0.30;;;15.20;97.30;;;;;;5014616;28;20054;-77
2022/05/27 08:41:28;;;;;;;0.68;0.32;;;15.20;96.40;;;;;;5015459;28;20045;-78
2022/05/27 08:44:07;;;;;;;2.55;0.20;;;15.20;96.50;;;;;;5014250;28;20457;-77
2022/05/27 08:47:13;;;;;;;0.30;0.20;;;15.30;96.40;;;;;;5013872;28;20512;-77
2022/05/27 08:49:41;;;;;;;0.68;0.20;;;15.50;95.90;;;;;;5014004;28;20073;-77
2022/05/27 08:52:24;;;;;;;0.70;0.25;;;15.70;96.40;;;;;;5013995;28;20050;-77
2022/05/27 08:54:57;;;;;;;0.47;0.20;;;15.60;94.50;;;;;;5013989;28;20049;-78
2022/05/27 09:00:15;;;;;;;1.33;0.35;;;15.60;94.90;;;;;;5000740;28;20057;-78
2022/05/27 09:02:56;;;;;;;0.68;0.30;;;15.50;95.10;;;;;;5014718;28;20050;-78
2022/05/27 09:05:44;;;;;;;0.22;0.15;;;15.60;96.00;;;;;;5013924;28;20053;-78
2022/05/27 09:08:16;;;;;;;0.75;0.30;;;15.60;94.70;;;;;;5014364;28;20046;-78
2022/05/27 09:11:07;;;;;;;0.55;0.30;;;15.50;95.30;;;;;;5013500;28;20133;-78
2022/05/27 09:13:47;;;;;;;0.28;0.20;;;15.60;94.40;;;;;;5013843;28;20121;-79
2022/05/27 09:16:17;;;;;;;2.25;0.30;;;15.80;95.40;;;;;;5014110;28;20054;-78
2022/05/27 09:19:00;;;;;;;0.50;0.20;;;15.90;95.30;;;;;;5013843;28;20050;-78
2022/05/27 09:22:02;;;;;;;1.95;0.30;;;15.90;93.50;;;;;;5015034;28;20042;-77
2022/05/27 09:24:56;;;;;;;1.42;0.30;;;15.80;91.70;;;;;;5018892;28;20050;-79
2022/05/27 09:27:32;;;;;;;1.75;0.20;;;15.70;94.10;;;;;;5022402;28;20054;-78
2022/05/27 09:30:06;;;;;;;1.65;0.20;;;15.80;94.20;;;;;;5003612;28;20079;-78
2022/05/27 09:32:48;;;;;;;0.35;0.30;;;15.90;93.50;;;;;;5031557;28;20030;-73
2022/05/27 09:35:19;;;;;;;0.90;0.30;;;15.90;92.90;;;;;;5039179;28;20042;-78
2022/05/27 09:37:47;;;;;;;0.55;0.30;;;15.80;92.70;;;;;;5038448;28;20061;-75
2022/05/27 09:40:19;;;;;;;3.70;0.30;;;15.80;93.60;;;;;;5021515;28;20053;-75
2022/05/27 09:42:56;;;;;;;0.93;0.20;;;15.80;93.90;;;;;;4986969;28;20058;-77
2022/05/27 09:45:21;;;;;;;0.80;0.25;;;16.00;93.00;;;;;;4996535;28;20041;-77
2022/05/27 09:47:47;;;;;;;0.30;0.20;;;16.20;93.80;;;;;;5013025;28;20052;-77
2022/05/27 09:50:22;;;;;;;0.30;0.20;;;16.20;93.20;;;;;;4997453;28;20569;-77
2022/05/27 09:52:47;;;;;;;0.75;0.20;;;16.20;90.10;;;;;;5014066;28;20056;-77
2022/05/27 09:55:48;;;;;;;0.63;0.28;;;16.40;92.70;;;;;;5013426;28;20062;-78
2022/05/27 09:58:14;;;;;;;2.10;0.28;;;16.50;91.30;;;;;;5015075;28;20057;-78
2022/05/27 10:00:43;;;;;;;1.55;0.20;;;16.40;92.10;;;;;;4996948;28;20596;-78
2022/05/27 10:03:25;;;;;;;0.15;0.10;;;16.40;92.80;;;;;;5014201;28;20046;-77
2022/05/27 10:05:55;;;;;;;0.68;0.20;;;16.30;89.50;;;;;;5013801;28;20113;-77
2022/05/27 10:08:29;;;;;;;0.30;0.20;;;16.30;92.50;;;;;;5013394;28;20119;-78
2022/05/27 10:11:10;;;;;;;2.00;0.30;;;16.30;92.60;;;;;;4996821;28;20183;-77
2022/05/27 10:13:36;;;;;;;1.92;0.20;;;16.30;91.70;;;;;;5012341;28;20050;-77
2022/05/27 10:16:10;;;;;;;0.52;0.28;;;16.40;93.20;;;;;;5014025;28;20498;-77
2022/05/27 10:18:35;;;;;;;0.32;0.20;;;16.40;91.70;;;;;;5012329;28;20045;-78
2022/05/27 10:21:12;;;;;;;0.68;0.20;;;16.50;91.70;;;;;;5013953;28;20049;-77
2022/05/27 10:23:40;;;;;;;0.28;0.28;;;16.50;91.80;;;;;;5012128;28;20080;-77
2022/05/27 10:26:29;;;;;;;0.57;0.22;;;16.50;92.10;;;;;;4980440;28;20057;-78
2022/05/27 10:29:06;;;;;;;0.60;0.40;;;16.50;86.40;;;;;;4996137;28;20057;-77
2022/05/27 10:31:32;;;;;;;0.57;0.20;;;16.60;89.80;;;;;;5012405;28;20050;-77
2022/05/27 10:34:00;;;;;;;0.73;0.20;;;16.60;91.50;;;;;;5011795;28;20049;-76
2022/05/27 10:37:03;;;;;;;0.13;0.10;;;16.70;92.30;;;;;;4996075;28;20522;-76
2022/05/27 10:39:42;;;;;;;1.75;0.30;;;16.90;88.80;;;;;;5012226;28;20053;-76
2022/05/27 10:42:28;;;;;;;0.20;0.20;;;17.10;91.60;;;;;;4981480;28;20053;-77
2022/05/27 10:45:09;;;;;;;0.65;0.20;;;17.10;87.50;;;;;;5012570;28;20089;-75
2022/05/27 10:48:24;;;;;;;0.63;0.20;;;16.90;87.90;;;;;;5013145;28;20050;-75
2022/05/27 10:51:13;;;;;;;0.20;0.10;;;16.60;88.10;;;;;;5009045;28;20249;-76
2022/05/27 10:53:50;;;;;;;1.05;0.20;;;16.40;90.80;;;;;;5012274;28;20401;-74
2022/05/27 10:56:18;;;;;;;0.70;0.20;;;16.50;91.60;;;;;;5011857;28;20069;-75
2022/05/27 11:02:19;;;;;;;0.28;0.20;;;16.90;89.10;;;;;;5012811;28;20581;-77
2022/05/27 11:05:10;;;;;;;0.55;0.25;;;17.00;87.40;;;;;;5015425;28;20059;-76
2022/05/27 11:07:54;;;;;;;0.20;0.20;;;17.20;90.80;;;;;;5013686;28;20053;-77
2022/05/27 11:10:39;;;;;;;0.50;0.20;;;17.50;90.20;;;;;;4981418;28;20081;-76
2022/05/27 11:16:25;;;;;;;0.57;0.20;;;17.40;87.50;;;;;;4998217;28;20418;-76
2022/05/27 11:18:57;;;;;;;0.45;0.20;;;17.10;83.00;;;;;;5020604;28;20371;-77
2022/05/27 11:22:00;;;;;;;0.98;0.30;;;16.90;89.80;;;;;;5033603;28;20050;-77
2022/05/27 11:24:37;;;;;;;1.80;0.20;;;16.80;88.90;;;;;;5031213;28;20053;-77
2022/05/27 11:27:11;;;;;;;1.60;0.20;;;16.80;90.80;;;;;;5031359;28;20033;-80
2022/05/27 11:30:04;;;;;;;0.40;0.20;;;17.00;90.90;;;;;;5037884;28;20034;-78
2022/05/27 11:33:21;;;;;;;0.60;0.20;;;17.10;86.70;;;;;;5020705;28;20042;-77
2022/05/27 11:36:10;;;;;;;2.60;0.28;;;17.20;83.80;;;;;;5035775;28;20062;-79
2022/05/27 11:38:39;;;;;;;1.02;0.22;;;17.20;83.70;;;;;;4998599;28;20050;-77
2022/05/27 11:41:23;;;;;;;0.98;0.32;;;17.30;85.70;;;;;;5013091;28;20050;-76
2022/05/27 11:44:11;;;;;;;2.08;0.20;;;17.10;78.70;;;;;;5011482;28;20520;-77
2022/05/27 11:46:41;;;;;;;0.47;0.30;;;16.90;83.10;;;;;;4997269;28;20054;-77
2022/05/27 11:49:26;;;;;;;0.43;0.20;;;16.80;85.60;;;;;;5011429;28;20053;-77
2022/05/27 11:52:31;;;;;;;0.57;0.20;;;16.80;85.40;;;;;;5012612;28;20050;-77
2022/05/27 11:55:36;;;;;;;0.70;0.30;;;16.80;86.10;;;;;;5011854;28;20049;-77
2022/05/27 11:58:20;;;;;;;0.95;0.30;;;16.80;84.50;;;;;;5015894;28;20529;-77
2022/05/27 12:00:52;;;;;;;0.35;0.20;;;16.70;83.80;;;;;;5012642;28;20498;-77
2022/05/27 12:03:28;;;;;;;0.85;0.25;;;16.50;86.10;;;;;;5011986;28;20379;-77
2022/05/27 12:05:56;;;;;;;0.30;0.20;;;16.40;86.40;;;;;;5011622;28;20054;-77
2022/05/27 12:08:39;;;;;;;1.75;0.28;;;16.20;87.30;;;;;;4997927;28;20041;-77
2022/05/27 12:11:25;;;;;;;0.60;0.25;;;16.30;87.40;;;;;;4999592;28;20046;-78
2022/05/27 12:14:14;;;;;;;1.25;0.20;;;16.50;87.20;;;;;;5016200;28;20046;-80
2022/05/27 12:16:42;;;;;;;0.63;0.28;;;16.60;84.90;;;;;;4984575;28;20060;-77
2022/05/27 12:19:32;;;;;;;0.20;0.20;;;16.50;86.00;;;;;;4983335;28;20046;-77
2022/05/27 12:22:11;;;;;;;0.60;0.30;;;16.50;83.60;;;;;;4999472;28;20080;-77
2022/05/27 12:24:45;;;;;;;0.82;0.20;;;16.50;85.80;;;;;;4999852;28;20503;-77
2022/05/27 12:27:12;;;;;;;1.98;0.20;;;16.50;87.00;;;;;;5014934;28;20455;-77
2022/05/27 12:29:38;;;;;;;0.45;0.30;;;16.40;85.60;;;;;;4982673;28;20104;-77
2022/05/27 12:32:07;;;;;;;0.28;0.20;;;16.30;86.80;;;;;;4998367;28;20065;-77
2022/05/27 12:34:32;;;;;;;0.22;0.20;;;16.20;84.90;;;;;;4982470;28;20038;-76
2022/05/27 12:37:00;;;;;;;0.70;0.20;;;16.20;87.80;;;;;;5031070;28;20061;-77
2022/05/27 12:39:27;;;;;;;0.38;0.20;;;16.20;88.50;;;;;;5015594;28;20100;-77
2022/05/27 12:42:27;;;;;;;0.75;0.20;;;16.40;87.30;;;;;;5015545;28;20037;-77
2022/05/27 12:44:53;;;;;;;0.50;0.20;;;16.50;85.70;;;;;;5014852;28;20092;-76
2022/05/27 12:47:19;;;;;;;0.50;0.20;;;16.60;87.30;;;;;;5014314;28;20081;-77
2022/05/27 12:49:47;;;;;;;0.63;0.20;;;16.60;87.40;;;;;;5015855;28;20046;-77
2022/05/27 12:52:28;;;;;;;2.83;0.30;;;16.60;86.70;;;;;;5015193;28;20096;-78
2022/05/27 12:54:54;;;;;;;1.33;0.20;;;16.70;84.10;;;;;;5015115;28;20108;-77
2022/05/27 13:00:57;;;;;;;0.45;0.20;;;16.60;85.20;;;;;;5015293;28;20387;-77
2022/05/27 13:03:36;;;;;;;0.63;0.30;;;16.60;85.40;;;;;;5015252;28;20457;-77
2022/05/27 13:06:03;;;;;;;0.45;0.20;;;16.80;82.20;;;;;;5013905;28;20108;-77
2022/05/27 13:08:32;;;;;;;1.25;0.30;;;16.70;85.30;;;;;;5014263;28;20050;-77
2022/05/27 13:10:58;;;;;;;0.90;0.20;;;16.70;86.50;;;;;;5014047;28;20132;-77
2022/05/27 13:13:25;;;;;;;1.23;0.22;;;16.90;88.10;;;;;;5013573;28;20133;-76
2022/05/27 13:16:10;;;;;;;1.73;0.20;;;17.00;86.90;;;;;;5014192;28;20050;-77
2022/05/27 13:18:38;;;;;;;0.73;0.30;;;17.20;84.60;;;;;;5015410;28;20085;-77
2022/05/27 13:21:45;;;;;;;0.45;0.20;;;17.10;86.50;;;;;;5023471;28;20062;-81
2022/05/27 13:24:13;;;;;;;0.20;0.10;;;17.10;81.90;;;;;;5036675;28;20062;-78
2022/05/27 13:26:54;;;;;;;1.65;0.30;;;16.90;83.30;;;;;;5034082;28;20050;-77
2022/05/27 13:29:33;;;;;;;0.70;0.20;;;16.60;81.60;;;;;;5033684;28;20038;-77
2022/05/27 13:32:13;;;;;;;0.20;0.20;;;16.40;83.50;;;;;;5039166;28;20033;-77
2022/05/27 13:35:17;;;;;;;1.00;0.20;;;16.30;85.30;;;;;;5039347;28;20110;-78
2022/05/27 13:37:54;;;;;;;1.15;0.30;;;16.40;85.40;;;;;;5047750;28;20053;-76
2022/05/27 13:40:24;;;;;;;0.85;0.35;;;16.40;84.30;;;;;;5016325;28;20500;-76
2022/05/27 13:42:52;;;;;;;0.90;0.20;;;16.30;84.20;;;;;;5017419;28;20038;-77
2022/05/27 13:45:27;;;;;;;0.30;0.20;;;16.30;85.60;;;;;;5000478;28;20041;-77
2022/05/27 13:48:00;;;;;;;0.73;0.20;;;16.40;85.40;;;;;;5015956;28;20548;-77